Time;durP1;ratioP1;P1;durP2;ratioP2;P2;SDS_P1;SDS_P2;PMS_P1;PMS_P2;Temp;Humidity;BMP_temperature;BMP_pressure;BME280_temperature;BME280_humidity;BME280_pressure;Samples;Min_cycle;Max_cycle;Signal;HPM_P1;HPM_P2
2023/01/29 00:01:58;;;;;;;24.50;21.98;;;;;;;;;;5016756;28;20441;-80
2023/01/29 00:04:24;;;;;;;24.95;22.30;;;;;;;;;;5016149;28;20427;-80
2023/01/29 00:06:50;;;;;;;25.85;22.48;;;;;;;;;;5030890;28;20503;-80
2023/01/29 00:09:16;;;;;;;25.00;22.40;;;;;;;;;;5033079;28;20396;-80
2023/01/29 00:11:42;;;;;;;25.10;22.50;;;;;;;;;;5013861;28;20413;-80
2023/01/29 00:14:08;;;;;;;25.20;22.57;;;;;;;;;;4998847;28;20484;-83
2023/01/29 00:16:34;;;;;;;26.08;22.63;;;;;;;;;;4998928;28;20413;-83
2023/01/29 00:19:01;;;;;;;24.65;22.05;;;;;;;;;;4999316;28;20409;-83
2023/01/29 00:21:29;;;;;;;24.88;22.27;;;;;;;;;;4998962;28;20463;-83
2023/01/29 00:23:55;;;;;;;24.92;21.75;;;;;;;;;;5009068;28;20463;-83
2023/01/29 00:26:22;;;;;;;24.63;22.02;;;;;;;;;;5015447;28;20424;-82
2023/01/29 00:28:48;;;;;;;26.05;22.90;;;;;;;;;;5017926;28;20447;-82
2023/01/29 00:31:18;;;;;;;24.52;21.92;;;;;;;;;;4998595;28;20422;-80
2023/01/29 00:33:44;;;;;;;25.93;23.13;;;;;;;;;;4989034;28;20451;-80
2023/01/29 00:36:11;;;;;;;25.77;23.08;;;;;;;;;;4997543;28;20481;-80
2023/01/29 00:38:37;;;;;;;25.75;22.70;;;;;;;;;;5000693;28;20423;-79
2023/01/29 00:46:35;;;;;;;25.20;22.50;;;;;;;;;;5019795;28;20459;-80
2023/01/29 00:49:01;;;;;;;27.10;23.50;;;;;;;;;;5008512;28;20443;-80
2023/01/29 00:51:28;;;;;;;27.55;23.73;;;;;;;;;;5000794;28;20433;-79
2023/01/29 00:53:57;;;;;;;26.52;23.63;;;;;;;;;;5017562;28;20413;-79
2023/01/29 00:56:23;;;;;;;26.90;24.00;;;;;;;;;;5001807;28;20464;-80
2023/01/29 00:58:49;;;;;;;26.88;23.45;;;;;;;;;;5018156;28;20421;-80
2023/01/29 01:01:15;;;;;;;26.70;23.80;;;;;;;;;;5013209;28;20507;-80
2023/01/29 01:03:45;;;;;;;26.48;23.55;;;;;;;;;;5010673;28;20409;-80
2023/01/29 01:06:11;;;;;;;27.30;24.23;;;;;;;;;;5017958;28;20409;-80
2023/01/29 01:11:22;;;;;;;27.05;24.15;;;;;;;;;;5020995;28;20452;-80
2023/01/29 01:13:48;;;;;;;26.77;23.92;;;;;;;;;;4998631;28;20408;-80
2023/01/29 01:16:17;;;;;;;27.00;24.15;;;;;;;;;;4998355;28;20404;-80
2023/01/29 01:18:43;;;;;;;26.02;23.17;;;;;;;;;;4998172;28;20415;-80
2023/01/29 01:21:09;;;;;;;27.40;24.50;;;;;;;;;;5014363;28;20521;-83
2023/01/29 01:23:35;;;;;;;27.25;23.95;;;;;;;;;;5001860;28;20450;-82
2023/01/29 01:26:01;;;;;;;26.27;23.55;;;;;;;;;;5001767;28;20428;-82
2023/01/29 01:28:28;;;;;;;28.23;24.10;;;;;;;;;;5035249;28;20409;-82
2023/01/29 01:30:54;;;;;;;27.00;24.02;;;;;;;;;;5017593;28;20498;-82
2023/01/29 01:33:21;;;;;;;26.58;23.67;;;;;;;;;;5017474;28;20536;-83
2023/01/29 01:35:47;;;;;;;26.73;23.88;;;;;;;;;;5017434;28;20410;-82
2023/01/29 01:38:13;;;;;;;26.95;23.98;;;;;;;;;;5015929;28;20409;-80
2023/01/29 01:40:43;;;;;;;27.52;24.63;;;;;;;;;;5017240;28;20430;-80
2023/01/29 01:43:09;;;;;;;27.02;23.83;;;;;;;;;;5017369;28;20410;-80
2023/01/29 01:45:36;;;;;;;28.08;24.90;;;;;;;;;;5017292;28;20456;-80
2023/01/29 01:48:14;;;;;;;28.23;25.13;;;;;;;;;;5017319;28;20405;-80
2023/01/29 01:50:45;;;;;;;29.55;25.42;;;;;;;;;;5023718;28;20407;-80
2023/01/29 01:53:13;;;;;;;29.20;25.17;;;;;;;;;;5030496;28;20419;-80
2023/01/29 01:55:45;;;;;;;29.75;26.33;;;;;;;;;;5022681;28;20486;-79
2023/01/29 01:58:14;;;;;;;28.50;25.40;;;;;;;;;;5006594;28;20430;-80
2023/01/29 02:00:40;;;;;;;29.77;26.58;;;;;;;;;;4998644;28;20454;-79
2023/01/29 02:11:27;;;;;;;30.25;26.92;;;;;;;;;;5021006;28;20438;-83
2023/01/29 02:13:53;;;;;;;29.75;26.30;;;;;;;;;;4994358;28;20429;-83
2023/01/29 02:16:20;;;;;;;29.57;26.37;;;;;;;;;;5032822;28;20409;-83
2023/01/29 02:18:46;;;;;;;30.67;27.35;;;;;;;;;;5014871;28;20422;-83
2023/01/29 02:21:23;;;;;;;29.50;26.30;;;;;;;;;;5000546;28;20440;-83
2023/01/29 02:24:05;;;;;;;30.20;26.88;;;;;;;;;;4997584;28;20494;-83
2023/01/29 02:26:37;;;;;;;29.77;26.48;;;;;;;;;;5008802;28;20427;-82
2023/01/29 02:29:21;;;;;;;31.17;26.80;;;;;;;;;;5013475;28;20431;-82
2023/01/29 02:32:10;;;;;;;29.80;26.55;;;;;;;;;;5013608;28;20417;-83
2023/01/29 02:37:25;;;;;;;30.60;26.75;;;;;;;;;;5014382;28;20465;-83
2023/01/29 02:39:54;;;;;;;31.08;27.67;;;;;;;;;;4998300;28;20465;-83
2023/01/29 02:42:26;;;;;;;33.88;27.83;;;;;;;;;;5016127;28;20440;-83
2023/01/29 02:45:03;;;;;;;30.40;27.13;;;;;;;;;;5016598;28;20455;-80
2023/01/29 02:47:35;;;;;;;30.02;26.83;;;;;;;;;;5010319;28;20415;-80
2023/01/29 02:50:28;;;;;;;31.20;27.38;;;;;;;;;;5013942;28;20532;-80
2023/01/29 02:52:55;;;;;;;32.55;27.60;;;;;;;;;;4996225;28;20419;-80
2023/01/29 02:55:41;;;;;;;30.13;26.60;;;;;;;;;;5013479;28;20446;-80
2023/01/29 02:58:13;;;;;;;31.88;26.80;;;;;;;;;;4997774;28;20438;-79
2023/01/29 03:00:42;;;;;;;30.60;27.23;;;;;;;;;;5002756;28;20480;-80
2023/01/29 03:03:13;;;;;;;30.80;27.40;;;;;;;;;;5001244;28;20422;-80
2023/01/29 03:05:45;;;;;;;31.08;27.10;;;;;;;;;;5012338;28;20478;-80
2023/01/29 03:08:14;;;;;;;31.42;27.67;;;;;;;;;;5012483;28;20440;-80
2023/01/29 03:10:46;;;;;;;32.30;27.90;;;;;;;;;;5015947;28;20512;-80
2023/01/29 03:13:26;;;;;;;32.55;27.48;;;;;;;;;;5024445;28;20423;-80
2023/01/29 03:16:00;;;;;;;30.67;27.27;;;;;;;;;;5016125;28;20410;-80
2023/01/29 03:18:29;;;;;;;31.73;27.63;;;;;;;;;;5003164;28;20411;-80
2023/01/29 03:20:58;;;;;;;31.52;27.85;;;;;;;;;;5052329;28;20470;-80
2023/01/29 03:32:05;;;;;;;31.42;27.70;;;;;;;;;;4999225;28;20462;-79
2023/01/29 03:34:37;;;;;;;31.75;27.83;;;;;;;;;;4996139;28;20531;-80
2023/01/29 03:37:24;;;;;;;31.52;27.40;;;;;;;;;;5027102;28;20408;-80
2023/01/29 03:39:50;;;;;;;34.13;29.23;;;;;;;;;;5035210;28;20477;-80
2023/01/29 03:42:16;;;;;;;33.83;29.23;;;;;;;;;;5004286;28;20439;-80
2023/01/29 03:44:48;;;;;;;32.95;27.88;;;;;;;;;;5026569;28;20412;-80
2023/01/29 03:47:20;;;;;;;32.72;28.10;;;;;;;;;;5013558;28;20453;-80
2023/01/29 03:49:46;;;;;;;32.03;27.97;;;;;;;;;;5047294;28;20400;-80
2023/01/29 03:52:17;;;;;;;31.10;27.80;;;;;;;;;;5026559;28;20406;-80
2023/01/29 03:54:56;;;;;;;31.98;28.25;;;;;;;;;;5033307;28;20409;-80
2023/01/29 03:57:22;;;;;;;31.63;27.65;;;;;;;;;;5015804;28;20424;-80
2023/01/29 04:00:00;;;;;;;31.02;27.35;;;;;;;;;;5015470;28;20463;-80
2023/01/29 04:02:36;;;;;;;31.63;27.38;;;;;;;;;;5018020;28;20436;-79
2023/01/29 04:05:05;;;;;;;31.63;28.23;;;;;;;;;;5017127;28;20498;-83
2023/01/29 04:07:33;;;;;;;32.58;29.08;;;;;;;;;;4999968;28;20453;-80
2023/01/29 04:10:05;;;;;;;32.55;28.83;;;;;;;;;;5018736;28;20411;-80
2023/01/29 04:12:40;;;;;;;33.05;28.52;;;;;;;;;;5025063;28;20398;-80
2023/01/29 04:15:09;;;;;;;33.17;28.67;;;;;;;;;;5021434;28;20405;-80
2023/01/29 04:17:37;;;;;;;32.15;28.33;;;;;;;;;;5039041;28;20396;-80
2023/01/29 04:20:03;;;;;;;32.43;28.83;;;;;;;;;;5028891;28;20521;-80
2023/01/29 04:22:34;;;;;;;32.67;28.75;;;;;;;;;;5019239;28;20433;-80
2023/01/29 04:25:01;;;;;;;33.20;29.57;;;;;;;;;;5019368;28;20504;-80
2023/01/29 04:27:34;;;;;;;33.28;28.70;;;;;;;;;;5021448;28;20412;-80
2023/01/29 04:30:19;;;;;;;33.05;29.40;;;;;;;;;;5023017;28;20423;-80
2023/01/29 04:32:48;;;;;;;33.75;29.00;;;;;;;;;;5013483;28;20411;-80
2023/01/29 04:35:23;;;;;;;33.77;28.93;;;;;;;;;;5024806;28;20424;-80
2023/01/29 04:37:56;;;;;;;34.38;29.85;;;;;;;;;;5035314;28;20420;-80
2023/01/29 04:40:36;;;;;;;34.00;29.23;;;;;;;;;;5016348;28;20433;-79
2023/01/29 04:43:10;;;;;;;32.78;28.80;;;;;;;;;;5017426;28;20534;-79
2023/01/29 04:45:49;;;;;;;34.05;29.27;;;;;;;;;;5029099;28;20410;-79
2023/01/29 04:48:21;;;;;;;33.88;29.50;;;;;;;;;;5005724;28;20430;-79
2023/01/29 04:50:51;;;;;;;35.83;30.00;;;;;;;;;;5009453;28;20423;-80
2023/01/29 04:53:23;;;;;;;33.20;28.83;;;;;;;;;;5040502;28;20433;-80
2023/01/29 04:55:59;;;;;;;33.13;29.25;;;;;;;;;;5038409;28;20400;-80
2023/01/29 04:58:28;;;;;;;38.93;30.27;;;;;;;;;;5038341;28;20407;-80
2023/01/29 05:00:54;;;;;;;35.63;30.63;;;;;;;;;;5026681;28;20432;-80
2023/01/29 05:03:23;;;;;;;34.30;30.40;;;;;;;;;;5036023;28;20437;-80
2023/01/29 05:05:49;;;;;;;33.88;30.10;;;;;;;;;;5018530;28;20414;-80
2023/01/29 05:08:18;;;;;;;33.88;29.63;;;;;;;;;;5018098;28;20408;-80
2023/01/29 05:10:46;;;;;;;34.72;29.42;;;;;;;;;;5018253;28;20475;-80
2023/01/29 05:13:13;;;;;;;33.30;29.70;;;;;;;;;;5035825;28;20404;-80
2023/01/29 05:15:43;;;;;;;35.33;29.10;;;;;;;;;;5018386;28;20412;-80
2023/01/29 05:18:09;;;;;;;34.67;29.40;;;;;;;;;;5018123;28;20463;-79
2023/01/29 05:20:37;;;;;;;35.30;29.53;;;;;;;;;;5018048;28;20397;-79
2023/01/29 05:23:03;;;;;;;34.53;29.52;;;;;;;;;;5018309;28;20413;-79
2023/01/29 05:25:31;;;;;;;35.75;29.52;;;;;;;;;;5017832;28;20402;-82
2023/01/29 05:28:10;;;;;;;35.23;29.63;;;;;;;;;;5017893;28;20492;-82
2023/01/29 05:30:37;;;;;;;34.20;28.83;;;;;;;;;;5035520;28;20401;-82
2023/01/29 05:33:04;;;;;;;34.58;29.70;;;;;;;;;;5035193;28;20401;-82
2023/01/29 05:35:30;;;;;;;33.22;29.50;;;;;;;;;;5035319;28;20397;-83
2023/01/29 05:37:56;;;;;;;32.47;28.95;;;;;;;;;;5017951;28;20417;-82
2023/01/29 05:40:23;;;;;;;41.90;36.70;;;;;;;;;;5001242;28;20413;-82
2023/01/29 05:42:49;;;;;;;39.10;34.83;;;;;;;;;;4998153;28;20434;-82
2023/01/29 05:45:16;;;;;;;37.58;32.03;;;;;;;;;;4998153;28;20455;-83
2023/01/29 05:47:42;;;;;;;36.20;32.30;;;;;;;;;;5015513;28;20403;-80
2023/01/29 05:50:08;;;;;;;36.00;30.73;;;;;;;;;;4998483;28;20461;-80
2023/01/29 05:52:34;;;;;;;34.47;30.67;;;;;;;;;;5000615;28;20472;-80
2023/01/29 05:55:00;;;;;;;34.70;30.20;;;;;;;;;;5017330;28;20441;-80
2023/01/29 05:57:26;;;;;;;34.88;30.50;;;;;;;;;;4997323;28;20521;-80
2023/01/29 05:59:52;;;;;;;34.63;30.50;;;;;;;;;;4981571;28;20415;-80
2023/01/29 06:02:18;;;;;;;34.92;30.90;;;;;;;;;;4982866;28;20442;-80
2023/01/29 06:04:44;;;;;;;36.15;31.98;;;;;;;;;;4985062;28;20439;-79
2023/01/29 06:07:10;;;;;;;35.45;31.15;;;;;;;;;;4981686;28;20474;-79
2023/01/29 06:09:36;;;;;;;35.80;31.77;;;;;;;;;;4997573;28;20419;-79
2023/01/29 06:12:05;;;;;;;37.83;32.78;;;;;;;;;;4997851;28;20502;-79
2023/01/29 06:14:31;;;;;;;37.47;32.53;;;;;;;;;;4981764;28;20422;-79
2023/01/29 06:16:57;;;;;;;38.92;32.78;;;;;;;;;;4981654;28;20419;-79
2023/01/29 06:19:23;;;;;;;36.58;31.73;;;;;;;;;;4997822;28;20469;-79
2023/01/29 06:21:49;;;;;;;38.63;32.72;;;;;;;;;;4981259;28;20435;-79
2023/01/29 06:24:15;;;;;;;37.35;33.25;;;;;;;;;;4980655;28;20514;-79
2023/01/29 06:26:41;;;;;;;37.60;32.70;;;;;;;;;;4981237;28;20411;-79
2023/01/29 06:29:07;;;;;;;37.83;32.78;;;;;;;;;;4981026;28;20454;-79
2023/01/29 06:31:33;;;;;;;37.27;32.53;;;;;;;;;;4997312;28;20415;-80
2023/01/29 06:33:59;;;;;;;37.03;32.47;;;;;;;;;;4980811;28;20470;-79
2023/01/29 06:36:25;;;;;;;36.28;32.35;;;;;;;;;;4980686;28;20455;-80
2023/01/29 06:38:51;;;;;;;36.60;32.22;;;;;;;;;;4980581;28;20498;-80
2023/01/29 06:41:18;;;;;;;37.00;31.88;;;;;;;;;;4980767;28;20449;-80
2023/01/29 06:43:44;;;;;;;36.17;32.00;;;;;;;;;;5014610;28;20461;-80
2023/01/29 06:46:11;;;;;;;38.65;33.13;;;;;;;;;;5029374;28;20415;-80
2023/01/29 06:48:37;;;;;;;37.83;32.90;;;;;;;;;;5029225;28;20575;-80
2023/01/29 06:51:04;;;;;;;37.05;33.03;;;;;;;;;;4980281;28;20446;-80
2023/01/29 06:53:30;;;;;;;36.90;32.63;;;;;;;;;;5029052;28;20403;-80
2023/01/29 06:55:56;;;;;;;37.25;32.88;;;;;;;;;;5029002;28;20426;-80
2023/01/29 06:58:22;;;;;;;35.83;31.48;;;;;;;;;;4995895;28;20500;-80
2023/01/29 07:00:48;;;;;;;36.90;31.73;;;;;;;;;;5004976;28;20506;-80
2023/01/29 07:03:14;;;;;;;37.10;32.03;;;;;;;;;;5042388;28;20397;-80
2023/01/29 07:05:40;;;;;;;35.70;31.50;;;;;;;;;;5018758;28;20554;-80
2023/01/29 07:08:08;;;;;;;37.75;31.75;;;;;;;;;;5005943;28;20509;-79
2023/01/29 07:10:34;;;;;;;38.33;32.58;;;;;;;;;;5024586;28;20446;-83
2023/01/29 07:13:00;;;;;;;37.05;31.10;;;;;;;;;;5018241;28;20411;-82
2023/01/29 07:15:27;;;;;;;35.13;31.30;;;;;;;;;;5024241;28;20412;-82
2023/01/29 07:17:56;;;;;;;40.00;32.13;;;;;;;;;;5007033;28;20420;-83
2023/01/29 07:20:24;;;;;;;37.13;31.80;;;;;;;;;;5007878;28;20498;-82
2023/01/29 07:22:50;;;;;;;36.60;31.25;;;;;;;;;;5009812;28;20428;-82
2023/01/29 07:25:16;;;;;;;37.78;31.35;;;;;;;;;;5025957;28;20492;-83
2023/01/29 07:27:42;;;;;;;34.92;30.02;;;;;;;;;;5002523;28;20465;-80
2023/01/29 07:30:08;;;;;;;34.60;30.55;;;;;;;;;;5005870;28;20418;-80
2023/01/29 07:32:34;;;;;;;35.35;30.50;;;;;;;;;;5007131;28;20475;-80
2023/01/29 07:35:00;;;;;;;36.80;30.40;;;;;;;;;;5024247;28;20436;-80
2023/01/29 07:37:26;;;;;;;35.28;30.38;;;;;;;;;;5025867;28;20400;-80
2023/01/29 07:39:53;;;;;;;35.83;31.03;;;;;;;;;;5006714;28;20452;-80
2023/01/29 07:42:19;;;;;;;36.72;31.65;;;;;;;;;;5046204;28;20431;-80
2023/01/29 07:44:45;;;;;;;35.00;30.83;;;;;;;;;;5009608;28;20500;-80
2023/01/29 07:47:11;;;;;;;39.78;32.05;;;;;;;;;;5025448;28;20442;-80
2023/01/29 07:49:37;;;;;;;36.17;30.83;;;;;;;;;;5007838;28;20419;-80
2023/01/29 07:52:03;;;;;;;35.40;30.88;;;;;;;;;;5008266;28;20419;-80
2023/01/29 07:54:30;;;;;;;34.67;30.83;;;;;;;;;;5020726;28;20428;-80
2023/01/29 07:56:56;;;;;;;35.90;31.35;;;;;;;;;;5028568;28;20408;-80
2023/01/29 07:59:22;;;;;;;37.17;31.65;;;;;;;;;;5035966;28;20428;-80
2023/01/29 08:01:48;;;;;;;35.63;31.38;;;;;;;;;;5023519;28;20424;-80
2023/01/29 08:04:14;;;;;;;36.17;31.67;;;;;;;;;;5019496;28;20434;-80
2023/01/29 08:06:40;;;;;;;36.30;31.85;;;;;;;;;;5021441;28;20425;-80
2023/01/29 08:09:07;;;;;;;35.63;31.25;;;;;;;;;;4998588;28;20406;-80
2023/01/29 08:11:33;;;;;;;35.78;31.02;;;;;;;;;;5015705;28;20406;-80
2023/01/29 08:13:59;;;;;;;37.30;31.85;;;;;;;;;;5019589;28;20508;-79
2023/01/29 08:16:25;;;;;;;36.80;31.45;;;;;;;;;;5032628;28;20404;-82
2023/01/29 08:18:51;;;;;;;35.38;30.73;;;;;;;;;;5052546;28;20450;-82
2023/01/29 08:21:17;;;;;;;36.17;31.27;;;;;;;;;;5034877;28;20617;-82
2023/01/29 08:23:43;;;;;;;37.25;31.27;;;;;;;;;;5018793;28;20400;-83
2023/01/29 08:26:09;;;;;;;34.92;31.08;;;;;;;;;;5012899;28;20392;-82
2023/01/29 08:28:37;;;;;;;34.42;30.48;;;;;;;;;;5050044;28;20408;-81
2023/01/29 08:31:03;;;;;;;34.90;31.00;;;;;;;;;;5046486;28;20408;-83
2023/01/29 08:33:29;;;;;;;35.50;30.45;;;;;;;;;;4999049;28;20430;-82
2023/01/29 08:35:55;;;;;;;35.33;31.08;;;;;;;;;;4998496;28;20419;-82
2023/01/29 08:38:21;;;;;;;36.50;31.45;;;;;;;;;;4995761;28;20408;-80
2023/01/29 08:40:47;;;;;;;35.30;30.37;;;;;;;;;;5002859;28;20615;-80
2023/01/29 08:43:13;;;;;;;39.38;34.00;;;;;;;;;;5000538;28;20464;-80
2023/01/29 08:45:41;;;;;;;34.38;30.52;;;;;;;;;;5015103;28;20402;-80
2023/01/29 08:48:07;;;;;;;34.70;30.90;;;;;;;;;;5020948;28;20432;-80
2023/01/29 08:50:34;;;;;;;36.57;31.20;;;;;;;;;;5016712;28;20439;-83
2023/01/29 08:53:01;;;;;;;34.97;30.45;;;;;;;;;;5016411;28;20403;-83
2023/01/29 08:55:27;;;;;;;33.03;29.42;;;;;;;;;;4999063;28;20415;-82
2023/01/29 08:57:53;;;;;;;34.55;29.48;;;;;;;;;;4982899;28;20415;-83
2023/01/29 09:00:20;;;;;;;34.83;29.80;;;;;;;;;;4982734;28;20415;-82
2023/01/29 09:02:46;;;;;;;34.45;29.88;;;;;;;;;;4998668;28;20450;-83
2023/01/29 09:05:12;;;;;;;35.05;29.70;;;;;;;;;;5015075;28;20420;-83
2023/01/29 09:07:38;;;;;;;33.75;29.60;;;;;;;;;;5000388;28;20422;-83
2023/01/29 09:10:04;;;;;;;34.67;30.40;;;;;;;;;;4999308;28;20420;-83
2023/01/29 09:12:30;;;;;;;34.20;29.13;;;;;;;;;;4998286;28;20430;-83
2023/01/29 09:14:56;;;;;;;33.40;29.65;;;;;;;;;;4998855;28;20429;-83
2023/01/29 09:17:22;;;;;;;34.15;29.48;;;;;;;;;;4998617;28;20415;-83
2023/01/29 09:19:48;;;;;;;33.70;30.10;;;;;;;;;;4998499;28;20402;-82
2023/01/29 09:22:14;;;;;;;33.90;29.65;;;;;;;;;;4998255;28;20435;-83
2023/01/29 09:24:40;;;;;;;33.42;29.58;;;;;;;;;;4998292;28;20421;-80
2023/01/29 09:27:06;;;;;;;35.22;30.00;;;;;;;;;;4982553;28;20486;-80
2023/01/29 09:29:32;;;;;;;35.55;30.20;;;;;;;;;;5000043;28;20456;-79
2023/01/29 09:31:58;;;;;;;33.63;30.00;;;;;;;;;;5035188;28;20449;-79
2023/01/29 09:34:24;;;;;;;34.50;29.45;;;;;;;;;;4998112;28;20446;-80
2023/01/29 09:36:51;;;;;;;33.92;29.45;;;;;;;;;;5005311;28;20421;-79
2023/01/29 09:39:17;;;;;;;33.83;29.95;;;;;;;;;;5034946;28;20418;-80
2023/01/29 09:41:51;;;;;;;33.00;29.40;;;;;;;;;;5017776;28;20429;-80
2023/01/29 09:44:28;;;;;;;33.10;29.42;;;;;;;;;;5035443;28;20402;-80
2023/01/29 09:46:55;;;;;;;33.42;27.92;;;;;;;;;;5034108;28;20410;-80
2023/01/29 09:49:26;;;;;;;30.67;27.20;;;;;;;;;;5030087;28;20437;-81
2023/01/29 09:51:55;;;;;;;30.90;26.80;;;;;;;;;;5023953;28;20433;-80
2023/01/29 09:54:26;;;;;;;29.70;26.43;;;;;;;;;;5018075;28;20421;-80
2023/01/29 09:56:55;;;;;;;30.75;27.42;;;;;;;;;;5017656;28;20410;-80
2023/01/29 09:59:22;;;;;;;28.85;25.33;;;;;;;;;;5034181;28;20409;-80
2023/01/29 10:01:57;;;;;;;28.93;25.80;;;;;;;;;;5017874;28;20464;-80
2023/01/29 10:04:42;;;;;;;29.42;26.35;;;;;;;;;;5017950;28;20448;-80
2023/01/29 10:07:26;;;;;;;28.43;24.80;;;;;;;;;;5013655;28;20411;-80
2023/01/29 10:30:38;;;;;;;27.42;24.60;;;;;;;;;;4947063;29;20462;-82
2023/01/29 10:33:05;;;;;;;28.13;24.52;;;;;;;;;;4949015;28;20490;-82
2023/01/29 10:35:37;;;;;;;28.92;24.70;;;;;;;;;;4956253;28;20419;-84
2023/01/29 10:38:25;;;;;;;26.65;23.77;;;;;;;;;;4955156;28;20439;-84
2023/01/29 10:40:55;;;;;;;27.92;24.92;;;;;;;;;;4954806;28;20407;-83
2023/01/29 10:43:32;;;;;;;26.75;23.33;;;;;;;;;;4953545;28;20412;-83
2023/01/29 10:46:01;;;;;;;24.73;22.23;;;;;;;;;;4954721;28;20412;-84
2023/01/29 10:48:27;;;;;;;24.97;22.27;;;;;;;;;;4952953;28;20416;-84
2023/01/29 10:51:05;;;;;;;27.40;23.38;;;;;;;;;;4938093;29;20425;-83
2023/01/29 10:53:46;;;;;;;27.15;22.95;;;;;;;;;;4936693;29;20424;-83
2023/01/29 10:56:21;;;;;;;24.92;22.27;;;;;;;;;;4935426;29;20424;-83
2023/01/29 10:58:47;;;;;;;25.93;23.13;;;;;;;;;;4935504;29;20448;-84
2023/01/29 11:01:13;;;;;;;25.70;22.85;;;;;;;;;;4935643;29;20441;-79
2023/01/29 11:03:39;;;;;;;27.35;22.58;;;;;;;;;;4919452;29;20430;-79
2023/01/29 11:06:11;;;;;;;25.00;21.67;;;;;;;;;;4941457;28;20427;-78
2023/01/29 11:08:46;;;;;;;25.13;22.40;;;;;;;;;;4950955;28;20467;-79
2023/01/29 11:11:15;;;;;;;24.92;22.30;;;;;;;;;;4954566;28;20434;-79
2023/01/29 11:13:47;;;;;;;25.10;22.50;;;;;;;;;;4954495;28;20439;-79
2023/01/29 11:16:13;;;;;;;25.53;22.73;;;;;;;;;;4954008;28;20411;-78
2023/01/29 11:18:55;;;;;;;24.50;21.93;;;;;;;;;;4938390;28;20419;-83
2023/01/29 11:21:23;;;;;;;24.38;21.88;;;;;;;;;;4955368;28;20505;-84
2023/01/29 11:23:49;;;;;;;25.67;22.85;;;;;;;;;;4954198;28;20442;-84
2023/01/29 11:26:21;;;;;;;25.50;22.77;;;;;;;;;;4953494;28;20452;-83
2023/01/29 11:28:48;;;;;;;25.30;22.60;;;;;;;;;;4954985;28;20419;-83
2023/01/29 11:31:17;;;;;;;25.08;22.33;;;;;;;;;;4954303;28;20439;-83
2023/01/29 11:33:43;;;;;;;25.13;22.43;;;;;;;;;;4954363;28;20491;-84
2023/01/29 11:36:27;;;;;;;24.98;22.38;;;;;;;;;;4954239;28;20408;-78
2023/01/29 11:39:08;;;;;;;24.95;22.40;;;;;;;;;;4954155;28;20438;-78
2023/01/29 11:41:44;;;;;;;25.13;22.52;;;;;;;;;;4954203;28;20436;-79
2023/01/29 11:44:17;;;;;;;25.73;23.02;;;;;;;;;;4954970;28;20527;-78
2023/01/29 11:46:44;;;;;;;25.30;22.63;;;;;;;;;;4955031;28;20435;-79
2023/01/29 11:49:20;;;;;;;25.95;23.30;;;;;;;;;;4937881;28;20422;-78
2023/01/29 11:51:51;;;;;;;25.38;22.67;;;;;;;;;;4950013;28;20504;-78
2023/01/29 11:54:19;;;;;;;26.20;23.17;;;;;;;;;;4934692;29;20502;-78
2023/01/29 11:56:46;;;;;;;25.50;22.73;;;;;;;;;;4919168;29;20545;-78
2023/01/29 11:59:28;;;;;;;25.42;22.73;;;;;;;;;;4934749;29;20453;-78
2023/01/29 12:01:54;;;;;;;25.48;22.92;;;;;;;;;;4934558;29;20445;-78
2023/01/29 12:04:25;;;;;;;27.30;23.63;;;;;;;;;;4934585;29;20409;-78
2023/01/29 12:06:52;;;;;;;26.17;23.52;;;;;;;;;;4934493;29;20508;-78
2023/01/29 12:09:21;;;;;;;26.80;24.00;;;;;;;;;;4934824;29;20422;-79
2023/01/29 12:11:47;;;;;;;25.65;22.88;;;;;;;;;;4934580;29;20424;-80
2023/01/29 12:14:22;;;;;;;26.13;23.35;;;;;;;;;;4918747;29;20500;-79
2023/01/29 12:16:54;;;;;;;26.38;23.48;;;;;;;;;;4935862;28;20488;-80
2023/01/29 12:19:39;;;;;;;27.05;24.20;;;;;;;;;;4934735;29;20455;-79
2023/01/29 12:22:05;;;;;;;26.83;24.08;;;;;;;;;;4936114;29;20492;-79
2023/01/29 12:24:50;;;;;;;27.00;24.20;;;;;;;;;;4938071;29;20468;-78
2023/01/29 12:27:24;;;;;;;27.08;24.27;;;;;;;;;;4938180;29;20413;-78
2023/01/29 12:29:58;;;;;;;27.55;24.77;;;;;;;;;;4937952;29;20463;-78
2023/01/29 12:32:27;;;;;;;27.67;24.88;;;;;;;;;;4938261;29;20456;-78
2023/01/29 12:35:01;;;;;;;28.42;25.48;;;;;;;;;;4938186;29;20427;-78
2023/01/29 12:37:46;;;;;;;28.63;25.65;;;;;;;;;;4938059;29;20444;-78
2023/01/29 12:40:14;;;;;;;29.10;26.10;;;;;;;;;;4938070;29;20494;-77
2023/01/29 12:42:41;;;;;;;28.80;25.73;;;;;;;;;;4937795;29;20502;-78
2023/01/29 12:45:09;;;;;;;30.23;27.08;;;;;;;;;;4937552;29;20417;-78
2023/01/29 12:47:38;;;;;;;30.05;26.95;;;;;;;;;;4937734;29;20469;-78
2023/01/29 12:50:14;;;;;;;30.65;27.55;;;;;;;;;;4946593;28;20417;-78
2023/01/29 12:52:47;;;;;;;30.58;27.48;;;;;;;;;;4953554;28;20501;-78
2023/01/29 12:55:18;;;;;;;31.15;28.02;;;;;;;;;;4953587;28;20417;-78
2023/01/29 12:57:56;;;;;;;30.85;27.77;;;;;;;;;;4953554;28;20413;-83
2023/01/29 13:00:25;;;;;;;31.50;28.30;;;;;;;;;;4938587;29;20425;-83
2023/01/29 13:02:56;;;;;;;31.98;28.58;;;;;;;;;;4953718;29;20437;-83
2023/01/29 13:05:26;;;;;;;30.60;27.42;;;;;;;;;;4962805;28;20435;-83
2023/01/29 13:07:57;;;;;;;32.67;29.33;;;;;;;;;;4957692;28;20404;-83
2023/01/29 13:10:29;;;;;;;32.53;29.23;;;;;;;;;;4956646;28;20502;-83
2023/01/29 13:12:59;;;;;;;32.17;28.85;;;;;;;;;;4957441;28;20411;-83
2023/01/29 13:15:24;;;;;;;34.17;29.93;;;;;;;;;;4956320;28;20412;-83
2023/01/29 13:17:54;;;;;;;31.92;28.67;;;;;;;;;;4956584;28;20424;-83
2023/01/29 13:20:23;;;;;;;33.08;29.60;;;;;;;;;;4957343;28;20406;-83
2023/01/29 13:22:50;;;;;;;33.92;30.38;;;;;;;;;;4952191;28;20433;-83
2023/01/29 13:25:17;;;;;;;34.17;30.67;;;;;;;;;;4920978;29;20425;-82
2023/01/29 13:27:46;;;;;;;34.53;31.00;;;;;;;;;;4921245;29;20453;-83
2023/01/29 13:30:25;;;;;;;33.80;30.30;;;;;;;;;;4936700;29;20453;-82
2023/01/29 13:32:53;;;;;;;34.25;30.60;;;;;;;;;;4935867;29;20433;-78
2023/01/29 13:35:20;;;;;;;35.00;30.53;;;;;;;;;;4936699;29;20445;-78
2023/01/29 13:37:50;;;;;;;35.20;31.48;;;;;;;;;;4936543;29;20420;-78
2023/01/29 13:40:27;;;;;;;35.67;31.77;;;;;;;;;;4936897;29;20439;-78
2023/01/29 13:42:54;;;;;;;36.35;32.50;;;;;;;;;;4936634;29;20471;-78
2023/01/29 13:45:21;;;;;;;36.30;32.47;;;;;;;;;;4936572;29;20428;-78
2023/01/29 13:47:48;;;;;;;36.33;32.50;;;;;;;;;;4936670;29;20406;-83
2023/01/29 13:50:20;;;;;;;37.80;33.80;;;;;;;;;;4937656;29;20406;-83
2023/01/29 13:52:54;;;;;;;37.22;33.28;;;;;;;;;;4936468;29;20448;-83
2023/01/29 13:55:40;;;;;;;37.10;33.10;;;;;;;;;;4936547;29;20425;-83
2023/01/29 13:58:07;;;;;;;37.50;33.53;;;;;;;;;;4937460;29;20414;-83
2023/01/29 14:00:33;;;;;;;38.90;34.77;;;;;;;;;;4936756;29;20430;-83
2023/01/29 14:03:10;;;;;;;38.15;34.15;;;;;;;;;;4937598;29;20444;-83
2023/01/29 14:05:44;;;;;;;39.63;34.83;;;;;;;;;;4936509;29;20417;-78
2023/01/29 14:08:13;;;;;;;37.97;33.95;;;;;;;;;;4937395;29;20408;-78
2023/01/29 14:10:40;;;;;;;38.30;34.20;;;;;;;;;;4936369;29;20415;-78
2023/01/29 14:13:18;;;;;;;38.85;34.72;;;;;;;;;;4936206;29;20436;-79
2023/01/29 14:16:04;;;;;;;38.35;34.25;;;;;;;;;;4936309;29;20418;-78
2023/01/29 14:18:32;;;;;;;37.30;33.50;;;;;;;;;;4917388;29;20424;-78
2023/01/29 14:21:01;;;;;;;38.20;34.10;;;;;;;;;;4936086;29;20448;-78
2023/01/29 14:23:56;;;;;;;39.23;34.93;;;;;;;;;;4935970;29;20416;-79
2023/01/29 14:26:28;;;;;;;39.65;34.95;;;;;;;;;;4924016;29;20509;-79
2023/01/29 14:28:59;;;;;;;39.22;35.13;;;;;;;;;;4936759;29;20405;-79
2023/01/29 14:31:52;;;;;;;38.30;34.20;;;;;;;;;;4935836;29;20432;-79
2023/01/29 14:34:27;;;;;;;37.75;33.75;;;;;;;;;;4932954;29;20414;-78
2023/01/29 14:36:58;;;;;;;38.43;34.30;;;;;;;;;;4935970;29;20499;-78
2023/01/29 14:39:24;;;;;;;38.28;34.17;;;;;;;;;;4936853;29;20500;-79
2023/01/29 14:41:51;;;;;;;38.55;34.35;;;;;;;;;;4935485;29;20429;-78
2023/01/29 14:44:36;;;;;;;38.33;34.27;;;;;;;;;;4936321;29;20409;-78
2023/01/29 14:47:03;;;;;;;37.72;33.60;;;;;;;;;;4935618;29;20441;-78
2023/01/29 14:50:08;;;;;;;36.95;33.00;;;;;;;;;;4935474;29;20418;-78
2023/01/29 14:52:39;;;;;;;35.67;31.80;;;;;;;;;;4881120;29;20430;-78
2023/01/29 14:55:18;;;;;;;37.20;33.28;;;;;;;;;;4881098;29;20525;-83
2023/01/29 14:57:44;;;;;;;37.55;33.40;;;;;;;;;;4912235;29;20512;-83
2023/01/29 15:00:30;;;;;;;36.88;32.92;;;;;;;;;;4935277;29;20421;-83
2023/01/29 15:02:56;;;;;;;36.55;32.72;;;;;;;;;;4936238;29;20441;-83
2023/01/29 15:05:29;;;;;;;35.97;32.17;;;;;;;;;;4919480;29;20437;-83
2023/01/29 15:07:56;;;;;;;35.88;32.05;;;;;;;;;;4935535;29;20504;-83
2023/01/29 15:10:42;;;;;;;35.78;31.92;;;;;;;;;;4935146;29;20506;-84
2023/01/29 15:13:14;;;;;;;36.50;32.22;;;;;;;;;;4934921;29;20453;-78
2023/01/29 15:15:46;;;;;;;36.15;32.35;;;;;;;;;;4935168;29;20503;-78
2023/01/29 15:18:17;;;;;;;36.83;32.67;;;;;;;;;;4934781;29;20425;-78
2023/01/29 15:20:43;;;;;;;36.05;32.17;;;;;;;;;;4936101;29;20414;-78